Terminal Aerodrome Forecast
Issued by NWS

Home | Current Version | Previous Version | Text Only | Print | Product List | Glossary On
Versions: 1 2 3 4 5 6 7 8 9 10 11 12 13 14 15 16 17 18 19 20
000
FTUS44 KLZK 061100
TAFBPK
TAF
KBPK 061135Z 0612/0712 16005KT P6SM SCT040 BKN250
      TEMPO 0612/0613 5SM BR BKN020
     FM061400 21008G15KT P6SM VCSH SCT015 BKN050 OVC250
     FM061800 21010G20KT P6SM VCTS SCT030CB BKN250=

USA.gov is the U.S. government's official web portal to all federal, state and local government web resources and services.